Time;durP1;ratioP1;P1;durP2;ratioP2;P2;SDS_P1;SDS_P2;PMS_P1;PMS_P2;Temp;Humidity;BMP_temperature;BMP_pressure;BME280_temperature;BME280_humidity;BME280_pressure;Samples;Min_cycle;Max_cycle;Signal;HPM_P1;HPM_P2
2022/07/29 00:01:07;;;;;;;1.30;1.30;;;24.70;65.80;;;;;;5127530;27;44114;-70
2022/07/29 00:03:46;;;;;;;1.40;1.40;;;24.60;65.80;;;;;;5127278;27;43936;-71
2022/07/29 00:06:16;;;;;;;1.40;1.40;;;24.50;66.50;;;;;;5108867;27;44006;-71
2022/07/29 00:08:44;;;;;;;1.30;1.30;;;24.50;66.50;;;;;;5108236;27;46432;-69
2022/07/29 00:11:12;;;;;;;1.33;1.33;;;24.40;66.40;;;;;;5127833;27;44032;-70
2022/07/29 00:13:40;;;;;;;1.30;1.30;;;24.40;66.30;;;;;;5127270;27;44062;-71
2022/07/29 00:16:08;;;;;;;1.40;1.40;;;24.30;67.00;;;;;;5127542;27;43974;-70
2022/07/29 00:18:35;;;;;;;1.40;1.40;;;24.30;67.00;;;;;;5126966;27;43912;-71
2022/07/29 00:21:04;;;;;;;1.37;1.37;;;24.30;66.90;;;;;;5126950;27;43921;-70
2022/07/29 00:23:35;;;;;;;1.47;1.47;;;24.30;66.70;;;;;;5127200;27;44056;-70
2022/07/29 00:26:03;;;;;;;1.17;1.17;;;24.20;67.20;;;;;;5127276;27;43518;-70
2022/07/29 00:28:31;;;;;;;1.43;1.43;;;24.20;67.70;;;;;;5101390;27;43911;-70
2022/07/29 00:30:59;;;;;;;1.40;1.40;;;24.30;67.40;;;;;;5098938;27;44002;-69
2022/07/29 00:33:27;;;;;;;1.33;1.33;;;24.40;66.80;;;;;;5082119;27;44092;-71
2022/07/29 00:35:54;;;;;;;1.40;1.40;;;24.50;66.40;;;;;;5104176;27;43905;-70
2022/07/29 00:38:24;;;;;;;2.63;1.40;;;24.60;65.90;;;;;;5110073;27;43970;-70
2022/07/29 00:40:53;;;;;;;1.13;1.13;;;24.70;65.70;;;;;;5103881;27;44603;-70
2022/07/29 00:43:21;;;;;;;1.37;1.27;;;24.70;65.80;;;;;;5110480;27;43392;-70
2022/07/29 00:45:49;;;;;;;1.50;1.50;;;24.60;65.80;;;;;;5104293;27;43951;-71
2022/07/29 00:48:18;;;;;;;1.40;1.40;;;24.50;66.20;;;;;;5103517;27;43961;-70
2022/07/29 00:50:46;;;;;;;1.20;1.20;;;24.50;66.30;;;;;;5110286;27;43977;-69
2022/07/29 00:53:14;;;;;;;1.27;1.27;;;24.50;66.40;;;;;;5110366;27;43892;-71
2022/07/29 00:55:42;;;;;;;1.30;1.30;;;24.40;66.10;;;;;;5110652;27;43943;-70
2022/07/29 00:58:12;;;;;;;1.13;1.13;;;24.40;67.00;;;;;;5110517;27;43940;-70
2022/07/29 01:00:41;;;;;;;1.20;1.20;;;24.30;66.90;;;;;;5110460;27;43824;-70
2022/07/29 01:03:09;;;;;;;1.40;1.40;;;24.30;66.80;;;;;;5091780;27;44031;-70
2022/07/29 01:05:37;;;;;;;1.20;1.20;;;24.30;66.70;;;;;;5110691;27;43945;-70
2022/07/29 01:08:18;;;;;;;1.40;1.40;;;24.20;67.50;;;;;;5109939;27;44020;-71
2022/07/29 01:10:46;;;;;;;1.30;1.30;;;24.20;67.40;;;;;;5091252;27;44843;-70
2022/07/29 01:13:15;;;;;;;1.30;1.30;;;24.30;67.00;;;;;;5110006;27;43955;-70
2022/07/29 01:15:45;;;;;;;1.30;1.30;;;24.40;66.60;;;;;;5091573;27;44031;-70
2022/07/29 01:18:19;;;;;;;1.40;1.40;;;24.50;66.20;;;;;;5099371;27;46071;-70
2022/07/29 01:21:01;;;;;;;1.23;1.23;;;24.70;65.80;;;;;;5110871;27;45001;-70
2022/07/29 01:23:47;;;;;;;1.33;1.33;;;24.70;66.50;;;;;;5129768;27;43869;-71
2022/07/29 01:26:29;;;;;;;1.40;1.40;;;24.60;65.80;;;;;;5129942;27;44037;-71
2022/07/29 01:29:08;;;;;;;1.20;1.20;;;24.60;66.30;;;;;;5129490;27;44020;-70
2022/07/29 01:31:43;;;;;;;1.30;1.30;;;24.50;66.30;;;;;;5129688;27;43950;-69
2022/07/29 01:34:30;;;;;;;1.20;1.20;;;24.50;66.40;;;;;;5129486;27;43838;-70
2022/07/29 01:37:02;;;;;;;1.30;1.30;;;24.40;66.40;;;;;;5129932;27;43383;-70
2022/07/29 01:39:32;;;;;;;1.50;1.50;;;24.30;67.00;;;;;;5109587;27;46074;-70
2022/07/29 01:42:02;;;;;;;1.20;1.20;;;24.30;66.90;;;;;;5109592;27;44977;-70
2022/07/29 01:44:35;;;;;;;1.20;1.20;;;24.30;67.00;;;;;;5129335;27;44014;-70
2022/07/29 01:47:06;;;;;;;1.13;1.13;;;24.30;66.70;;;;;;5129715;27;43967;-70
2022/07/29 01:49:37;;;;;;;1.30;1.30;;;24.20;67.40;;;;;;5129174;27;43936;-70
2022/07/29 01:52:08;;;;;;;1.17;1.17;;;24.20;67.40;;;;;;5129152;27;43989;-71
2022/07/29 01:54:38;;;;;;;1.03;1.03;;;24.30;67.70;;;;;;5129442;27;43833;-70
2022/07/29 01:57:08;;;;;;;1.10;1.10;;;24.40;66.60;;;;;;5130048;27;43995;-72
2022/07/29 01:59:37;;;;;;;1.27;1.27;;;24.50;66.10;;;;;;5129162;27;44096;-70
2022/07/29 02:02:05;;;;;;;1.10;1.10;;;24.60;65.80;;;;;;5128971;27;43985;-69
2022/07/29 02:04:34;;;;;;;1.40;1.40;;;24.70;65.80;;;;;;5129188;27;43491;-71
2022/07/29 02:07:03;;;;;;;1.40;1.40;;;24.60;65.80;;;;;;5129034;27;44096;-71
2022/07/29 02:09:32;;;;;;;1.30;1.30;;;24.50;66.10;;;;;;5128837;27;44027;-70
2022/07/29 02:12:00;;;;;;;1.40;1.40;;;24.50;66.40;;;;;;5128838;27;43898;-70
2022/07/29 02:14:30;;;;;;;1.30;1.30;;;24.50;66.40;;;;;;5128786;27;44112;-70
2022/07/29 02:17:00;;;;;;;1.13;1.13;;;24.40;66.40;;;;;;5110438;27;43953;-70
2022/07/29 02:19:28;;;;;;;1.40;1.40;;;24.40;66.70;;;;;;5128777;27;44029;-70
2022/07/29 02:21:56;;;;;;;1.20;1.20;;;24.30;67.10;;;;;;5128642;27;44042;-70
2022/07/29 02:24:24;;;;;;;1.20;1.20;;;24.30;67.00;;;;;;5122433;27;43961;-71
2022/07/29 02:26:53;;;;;;;1.40;1.40;;;24.30;67.00;;;;;;5090461;27;43941;-71
2022/07/29 02:29:22;;;;;;;1.37;1.33;;;24.20;66.60;;;;;;5089927;27;45671;-69
2022/07/29 02:31:50;;;;;;;1.23;1.23;;;24.20;67.60;;;;;;5128514;27;43805;-71
2022/07/29 02:34:20;;;;;;;1.10;1.10;;;24.20;68.00;;;;;;5128612;27;43925;-71
2022/07/29 02:36:50;;;;;;;1.20;1.20;;;24.30;67.00;;;;;;5102344;27;43935;-70
2022/07/29 02:39:19;;;;;;;1.30;1.30;;;24.40;66.50;;;;;;5080470;27;46494;-71
2022/07/29 02:41:48;;;;;;;1.27;1.27;;;24.50;66.10;;;;;;5108202;27;43935;-70
2022/07/29 02:44:17;;;;;;;1.20;1.20;;;24.60;65.80;;;;;;5090157;27;43909;-72
2022/07/29 02:46:49;;;;;;;1.30;1.30;;;24.70;65.80;;;;;;5109739;27;43888;-70
2022/07/29 02:49:24;;;;;;;1.20;1.20;;;24.60;65.80;;;;;;5109085;27;47066;-70
2022/07/29 02:51:54;;;;;;;1.27;1.27;;;24.50;66.20;;;;;;5109168;27;45042;-70
2022/07/29 02:54:27;;;;;;;1.40;1.40;;;24.50;66.30;;;;;;5128329;27;44028;-70
2022/07/29 02:56:55;;;;;;;1.30;1.30;;;24.50;66.40;;;;;;5128589;27;44053;-71
2022/07/29 02:59:24;;;;;;;1.20;1.20;;;24.40;66.40;;;;;;5128229;27;44875;-70
2022/07/29 03:01:52;;;;;;;1.40;1.30;;;24.30;67.00;;;;;;5127976;27;43749;-70
2022/07/29 03:04:21;;;;;;;1.10;1.10;;;24.30;67.10;;;;;;5128245;27;43949;-70
2022/07/29 03:06:50;;;;;;;1.20;1.20;;;24.30;67.00;;;;;;5128164;27;44047;-71
2022/07/29 03:09:18;;;;;;;1.30;1.30;;;24.20;66.60;;;;;;5127806;27;43975;-70
2022/07/29 03:11:46;;;;;;;1.23;1.23;;;24.20;67.30;;;;;;5127869;27;43991;-70
2022/07/29 03:14:18;;;;;;;1.20;1.20;;;24.20;67.50;;;;;;5128145;27;43351;-71
2022/07/29 03:16:47;;;;;;;1.30;1.30;;;24.20;67.10;;;;;;5128220;27;44066;-70
2022/07/29 03:19:16;;;;;;;1.50;1.50;;;24.30;66.70;;;;;;5127746;27;43928;-70
2022/07/29 03:21:45;;;;;;;1.30;1.30;;;24.40;66.30;;;;;;5127526;27;43326;-69
2022/07/29 03:24:25;;;;;;;1.30;1.30;;;24.60;65.90;;;;;;5127874;27;43889;-71
2022/07/29 03:26:53;;;;;;;1.30;1.30;;;24.70;65.80;;;;;;5128185;27;43812;-70
2022/07/29 03:29:21;;;;;;;1.40;1.40;;;24.60;65.70;;;;;;5127426;27;43947;-71
2022/07/29 03:31:51;;;;;;;1.30;1.30;;;24.60;66.10;;;;;;5127699;27;43388;-71
2022/07/29 03:34:22;;;;;;;1.37;1.37;;;24.50;66.20;;;;;;5128061;27;43962;-71
2022/07/29 03:36:51;;;;;;;1.20;1.20;;;24.50;66.30;;;;;;5101797;27;43890;-70
2022/07/29 03:39:22;;;;;;;1.33;1.33;;;24.40;66.30;;;;;;5101208;27;43967;-70
2022/07/29 03:41:52;;;;;;;1.30;1.30;;;24.40;66.40;;;;;;5106922;27;43911;-70
2022/07/29 03:44:20;;;;;;;1.40;1.40;;;24.30;67.00;;;;;;5107940;27;43986;-70
2022/07/29 03:46:48;;;;;;;1.40;1.40;;;24.30;67.00;;;;;;5108055;27;44013;-69
2022/07/29 03:49:16;;;;;;;1.23;1.23;;;24.30;66.90;;;;;;5107551;27;44129;-70
2022/07/29 03:51:45;;;;;;;1.20;1.20;;;24.20;66.70;;;;;;5107578;27;43917;-69
2022/07/29 03:54:14;;;;;;;1.30;1.30;;;24.20;67.50;;;;;;5107919;27;44021;-70
2022/07/29 03:56:45;;;;;;;1.23;1.23;;;24.20;67.40;;;;;;5107973;27;43873;-71
2022/07/29 03:59:14;;;;;;;1.50;1.50;;;24.30;67.00;;;;;;5107552;27;43994;-70
2022/07/29 04:01:42;;;;;;;1.30;1.30;;;24.40;66.50;;;;;;5087558;27;45696;-70
2022/07/29 04:04:10;;;;;;;1.10;1.10;;;24.50;66.10;;;;;;5110003;27;43311;-70
2022/07/29 04:06:39;;;;;;;1.30;1.30;;;24.50;65.90;;;;;;5111981;27;44050;-70
2022/07/29 04:09:07;;;;;;;1.20;1.20;;;24.50;65.60;;;;;;5111168;27;43888;-70
2022/07/29 04:11:38;;;;;;;1.47;1.47;;;24.50;65.90;;;;;;5126533;27;44021;-72
2022/07/29 04:14:26;;;;;;;1.37;1.37;;;24.40;66.40;;;;;;5131028;27;43921;-70
2022/07/29 04:16:55;;;;;;;1.40;1.40;;;24.40;67.00;;;;;;5131451;27;43793;-71
2022/07/29 04:19:23;;;;;;;1.40;1.40;;;24.40;66.50;;;;;;5130854;27;44030;-71
2022/07/29 04:21:51;;;;;;;1.40;1.40;;;24.30;66.30;;;;;;5100333;27;44856;-70
2022/07/29 04:24:19;;;;;;;1.40;1.40;;;24.30;67.20;;;;;;5111020;27;44010;-70
2022/07/29 04:26:48;;;;;;;1.30;1.30;;;24.30;67.10;;;;;;5111467;27;44125;-70
2022/07/29 04:29:16;;;;;;;1.20;1.20;;;24.30;66.60;;;;;;5110829;27;44922;-71
2022/07/29 04:31:44;;;;;;;1.37;1.37;;;24.40;66.20;;;;;;5104203;27;44498;-69
2022/07/29 04:34:13;;;;;;;1.30;1.30;;;24.50;65.90;;;;;;5130661;27;43975;-70
2022/07/29 04:36:43;;;;;;;1.50;1.50;;;24.60;65.80;;;;;;5131320;27;43932;-71
2022/07/29 04:39:11;;;;;;;1.30;1.30;;;24.60;65.90;;;;;;5130704;27;43760;-70
2022/07/29 04:41:39;;;;;;;1.50;1.50;;;24.50;65.90;;;;;;5129985;27;44056;-69
2022/07/29 04:44:08;;;;;;;1.30;1.30;;;24.50;66.30;;;;;;5130500;27;44053;-70
2022/07/29 04:46:36;;;;;;;1.30;1.30;;;24.40;66.30;;;;;;5131194;27;44014;-70
2022/07/29 04:49:04;;;;;;;1.60;1.60;;;24.40;66.40;;;;;;5130313;27;43914;-70
2022/07/29 04:51:32;;;;;;;1.47;1.47;;;24.30;66.30;;;;;;5130168;27;43908;-71
2022/07/29 04:54:02;;;;;;;1.43;1.43;;;24.30;67.00;;;;;;5111547;27;43372;-71
2022/07/29 04:56:30;;;;;;;1.30;1.30;;;24.30;66.80;;;;;;5130648;27;43987;-70
2022/07/29 04:58:58;;;;;;;1.60;1.50;;;24.40;66.50;;;;;;5130170;27;44496;-70
2022/07/29 05:01:27;;;;;;;1.50;1.50;;;24.50;66.10;;;;;;5123758;27;43983;-71
2022/07/29 05:03:55;;;;;;;1.33;1.33;;;24.60;65.90;;;;;;5103564;27;43930;-71
2022/07/29 05:06:27;;;;;;;1.47;1.47;;;24.60;66.00;;;;;;5110818;27;43589;-69
2022/07/29 05:08:55;;;;;;;1.50;1.50;;;24.50;65.90;;;;;;5110006;27;44006;-70
2022/07/29 05:11:23;;;;;;;1.40;1.40;;;24.50;66.30;;;;;;5110214;27;43343;-70
2022/07/29 05:13:57;;;;;;;1.43;1.43;;;24.40;66.50;;;;;;5110204;27;43821;-69
2022/07/29 05:16:26;;;;;;;1.50;1.40;;;24.40;66.50;;;;;;5110428;27;43973;-70
2022/07/29 05:18:54;;;;;;;1.37;1.37;;;24.30;66.30;;;;;;5109982;27;44041;-71
2022/07/29 05:21:22;;;;;;;1.40;1.40;;;24.30;66.70;;;;;;5110115;27;43981;-71
2022/07/29 05:23:50;;;;;;;1.20;1.20;;;24.20;67.20;;;;;;5110054;27;43949;-70
2022/07/29 05:26:18;;;;;;;1.50;1.50;;;24.20;67.10;;;;;;5117143;27;44029;-70
2022/07/29 05:28:46;;;;;;;1.40;1.40;;;24.20;66.90;;;;;;5109822;27;43760;-71
2022/07/29 05:31:14;;;;;;;1.33;1.33;;;24.10;66.70;;;;;;5109717;27;44126;-70
2022/07/29 05:33:44;;;;;;;1.40;1.40;;;24.10;67.60;;;;;;5110197;27;43927;-70
2022/07/29 05:36:12;;;;;;;1.30;1.30;;;24.10;67.40;;;;;;5110575;27;44044;-70
2022/07/29 05:38:40;;;;;;;1.27;1.27;;;24.20;67.00;;;;;;5109697;27;44246;-70
2022/07/29 05:41:08;;;;;;;1.40;1.40;;;24.40;66.70;;;;;;5109680;27;43885;-70
2022/07/29 05:43:35;;;;;;;1.30;1.30;;;24.50;66.20;;;;;;5109283;27;43928;-71
2022/07/29 05:46:03;;;;;;;1.40;1.40;;;24.60;65.90;;;;;;5109772;27;44109;-69
2022/07/29 05:48:32;;;;;;;1.50;1.50;;;24.60;65.90;;;;;;5090664;27;45778;-69
2022/07/29 05:51:01;;;;;;;1.60;1.60;;;24.50;65.90;;;;;;5109339;27;43522;-70
2022/07/29 05:53:29;;;;;;;1.23;1.23;;;24.50;66.40;;;;;;5110361;27;43943;-70
2022/07/29 05:55:57;;;;;;;1.40;1.40;;;24.40;66.40;;;;;;5110122;27;44034;-70
2022/07/29 05:58:25;;;;;;;1.50;1.50;;;24.40;66.50;;;;;;5109455;27;43756;-70
2022/07/29 06:00:53;;;;;;;1.20;1.20;;;24.30;66.50;;;;;;5109313;27;43988;-70
2022/07/29 06:03:21;;;;;;;1.20;1.20;;;24.30;67.10;;;;;;5124478;27;43908;-70
2022/07/29 06:05:49;;;;;;;1.20;1.20;;;24.30;67.40;;;;;;5129176;27;43443;-70
2022/07/29 06:08:19;;;;;;;1.50;1.50;;;24.30;67.10;;;;;;5129335;27;44985;-71
2022/07/29 06:10:47;;;;;;;1.40;1.40;;;24.40;66.70;;;;;;5110077;27;44753;-71
2022/07/29 06:13:15;;;;;;;1.37;1.37;;;24.50;66.30;;;;;;5128991;27;43929;-69
2022/07/29 06:15:43;;;;;;;1.40;1.40;;;24.60;66.20;;;;;;5129163;27;43981;-70
2022/07/29 06:18:13;;;;;;;1.30;1.30;;;24.50;66.10;;;;;;5128799;27;43603;-72
2022/07/29 06:20:41;;;;;;;1.43;1.43;;;24.50;66.20;;;;;;5129106;27;43419;-70
2022/07/29 06:23:09;;;;;;;1.20;1.20;;;24.40;66.70;;;;;;5129157;27;43448;-70
2022/07/29 06:25:40;;;;;;;1.40;1.40;;;24.40;66.70;;;;;;5128631;27;43853;-70
2022/07/29 06:28:08;;;;;;;1.30;1.30;;;24.40;66.90;;;;;;5128755;27;43937;-70
2022/07/29 06:30:36;;;;;;;1.33;1.33;;;24.30;66.60;;;;;;5109421;27;44312;-71
2022/07/29 06:33:04;;;;;;;1.40;1.40;;;24.20;67.40;;;;;;5128422;27;44065;-70
2022/07/29 06:35:34;;;;;;;1.37;1.37;;;24.20;67.40;;;;;;5128959;27;43891;-70
2022/07/29 06:38:08;;;;;;;1.50;1.50;;;24.20;67.50;;;;;;5128633;27;44016;-71
2022/07/29 06:41:04;;;;;;;1.50;1.50;;;24.20;67.00;;;;;;5128344;27;43917;-71
2022/07/29 06:43:35;;;;;;;1.30;1.30;;;24.10;68.00;;;;;;5128255;27;44018;-70
2022/07/29 06:46:19;;;;;;;1.27;1.27;;;24.10;67.70;;;;;;5128613;27;43993;-70
2022/07/29 06:48:48;;;;;;;1.30;1.30;;;24.30;67.30;;;;;;5128361;27;43993;-70
2022/07/29 06:51:17;;;;;;;1.30;1.30;;;24.40;66.80;;;;;;5128055;27;43968;-69
2022/07/29 06:53:49;;;;;;;1.50;1.50;;;24.50;66.50;;;;;;5128462;27;43827;-71
2022/07/29 06:56:31;;;;;;;1.27;1.27;;;24.50;66.20;;;;;;5128469;27;43850;-70
2022/07/29 06:59:05;;;;;;;1.30;1.30;;;24.50;66.20;;;;;;5109590;27;45767;-70
2022/07/29 07:01:33;;;;;;;1.30;1.30;;;24.50;66.60;;;;;;5127895;27;43916;-70
2022/07/29 07:04:01;;;;;;;1.20;1.20;;;24.40;66.80;;;;;;5128058;27;43384;-71
2022/07/29 07:06:29;;;;;;;1.43;1.43;;;24.40;66.80;;;;;;5128332;27;44014;-70
2022/07/29 07:08:57;;;;;;;1.33;1.33;;;24.30;66.90;;;;;;5127957;27;43904;-70
2022/07/29 07:11:25;;;;;;;1.30;1.30;;;24.30;66.80;;;;;;5127840;27;43982;-70
2022/07/29 07:13:54;;;;;;;1.30;1.30;;;24.20;68.40;;;;;;5127950;27;43403;-71
2022/07/29 07:16:29;;;;;;;1.40;1.40;;;24.20;67.40;;;;;;5109237;27;43881;-70
2022/07/29 07:18:57;;;;;;;1.30;1.30;;;24.30;67.80;;;;;;5127890;27;45024;-70
2022/07/29 07:21:25;;;;;;;1.37;1.37;;;24.40;66.70;;;;;;5127720;27;43888;-70
2022/07/29 07:23:57;;;;;;;1.10;1.10;;;24.50;66.40;;;;;;5127971;27;43998;-70
2022/07/29 07:26:25;;;;;;;1.50;1.50;;;24.50;66.40;;;;;;5119474;27;43943;-71
2022/07/29 07:28:54;;;;;;;1.20;1.20;;;24.50;66.50;;;;;;5107661;27;44290;-72
2022/07/29 07:31:22;;;;;;;1.30;1.30;;;24.40;66.90;;;;;;5107961;27;43934;-70
2022/07/29 07:33:51;;;;;;;1.30;1.30;;;24.40;67.00;;;;;;5107950;27;43375;-70
2022/07/29 07:36:19;;;;;;;1.27;1.27;;;24.30;67.00;;;;;;5108170;27;43508;-70
2022/07/29 07:38:47;;;;;;;1.30;1.30;;;24.30;66.90;;;;;;5109103;27;43966;-70
2022/07/29 07:41:15;;;;;;;1.40;1.40;;;24.20;67.30;;;;;;5110911;27;43379;-70
2022/07/29 07:43:43;;;;;;;1.40;1.40;;;24.20;67.90;;;;;;5111613;27;43931;-70
2022/07/29 07:46:12;;;;;;;1.20;1.20;;;24.20;67.80;;;;;;5093528;27;44097;-70
2022/07/29 07:48:40;;;;;;;1.20;1.20;;;24.10;67.60;;;;;;5093050;27;45847;-70
2022/07/29 07:51:08;;;;;;;1.20;1.20;;;24.10;67.10;;;;;;5111475;27;43922;-70
2022/07/29 07:53:36;;;;;;;1.30;1.30;;;24.10;68.30;;;;;;5111364;27;44022;-71
2022/07/29 07:56:06;;;;;;;1.30;1.30;;;24.10;68.90;;;;;;5093024;27;43395;-70
2022/07/29 07:58:38;;;;;;;1.50;1.50;;;24.20;67.60;;;;;;5111663;27;44596;-70
2022/07/29 08:01:06;;;;;;;1.30;1.30;;;24.30;67.20;;;;;;5111198;27;43923;-71
2022/07/29 08:03:35;;;;;;;1.37;1.37;;;24.40;66.70;;;;;;5092829;27;43354;-71
2022/07/29 08:06:03;;;;;;;1.10;1.10;;;24.50;67.20;;;;;;5111468;27;43961;-70
2022/07/29 08:08:31;;;;;;;1.20;1.20;;;24.50;66.50;;;;;;5092303;27;45882;-70
2022/07/29 08:11:01;;;;;;;1.20;1.20;;;24.50;66.40;;;;;;5111120;27;43991;-71
2022/07/29 08:13:36;;;;;;;1.30;1.20;;;24.40;66.70;;;;;;5111178;27;43441;-70
2022/07/29 08:16:11;;;;;;;1.60;1.60;;;24.40;66.90;;;;;;5092917;27;43411;-71
2022/07/29 08:18:41;;;;;;;1.20;1.20;;;24.40;66.90;;;;;;5111588;27;43933;-70
2022/07/29 08:21:09;;;;;;;1.33;1.33;;;24.30;66.80;;;;;;5092504;27;44976;-70
2022/07/29 08:23:39;;;;;;;1.20;1.20;;;24.30;67.40;;;;;;5110994;27;43376;-69
2022/07/29 08:26:16;;;;;;;1.43;1.43;;;24.20;67.50;;;;;;5111198;27;43954;-70
2022/07/29 08:28:45;;;;;;;1.40;1.40;;;24.30;67.30;;;;;;5110748;27;45094;-70
2022/07/29 08:31:14;;;;;;;1.40;1.40;;;24.40;67.10;;;;;;5110569;27;44079;-69
2022/07/29 08:33:43;;;;;;;1.50;1.50;;;24.40;66.50;;;;;;5110791;27;43968;-71
2022/07/29 08:36:12;;;;;;;1.20;1.20;;;24.50;66.40;;;;;;5111329;27;43865;-70
2022/07/29 08:38:40;;;;;;;1.40;1.40;;;24.50;66.50;;;;;;5092028;27;46063;-71
2022/07/29 08:41:08;;;;;;;1.30;1.30;;;24.50;66.40;;;;;;5110420;27;43474;-70
2022/07/29 08:43:37;;;;;;;1.57;1.47;;;24.40;67.00;;;;;;5091880;27;43847;-71
2022/07/29 08:46:05;;;;;;;1.50;1.50;;;24.40;67.00;;;;;;5092607;27;43456;-70
2022/07/29 08:48:34;;;;;;;1.33;1.33;;;24.30;67.00;;;;;;5110027;27;43702;-70
2022/07/29 08:51:03;;;;;;;1.30;1.30;;;24.30;66.70;;;;;;5111710;27;44017;-70
2022/07/29 08:53:32;;;;;;;1.50;1.50;;;24.20;67.50;;;;;;5130292;27;43347;-70
2022/07/29 08:56:00;;;;;;;1.30;1.30;;;24.20;67.50;;;;;;5130883;27;43821;-70
2022/07/29 08:58:28;;;;;;;1.50;1.50;;;24.20;67.20;;;;;;5130068;27;44110;-71
2022/07/29 09:00:56;;;;;;;1.30;1.30;;;24.30;66.90;;;;;;5129904;27;44170;-71
2022/07/29 09:03:25;;;;;;;1.70;1.60;;;24.40;66.50;;;;;;5114700;27;43860;-71
2022/07/29 09:05:53;;;;;;;1.30;1.30;;;24.50;66.50;;;;;;5110568;27;44052;-70
2022/07/29 09:08:23;;;;;;;1.20;1.20;;;24.50;66.40;;;;;;5110107;27;43920;-71
2022/07/29 09:10:51;;;;;;;1.50;1.50;;;24.40;66.40;;;;;;5091463;27;45241;-69
2022/07/29 09:13:19;;;;;;;1.47;1.47;;;24.30;66.80;;;;;;5091597;27;44005;-70
2022/07/29 09:15:47;;;;;;;1.40;1.40;;;24.30;66.80;;;;;;5091755;27;43604;-70
2022/07/29 09:18:34;;;;;;;1.30;1.30;;;24.30;66.90;;;;;;5109987;27;43999;-71
2022/07/29 09:24:06;;;;;;;1.30;1.30;;;24.20;67.40;;;;;;5124186;27;43994;-70
2022/07/29 09:26:35;;;;;;;1.40;1.40;;;24.10;67.40;;;;;;5130216;27;43919;-70
2022/07/29 09:29:09;;;;;;;1.20;1.20;;;24.10;67.20;;;;;;5129643;27;43614;-70
2022/07/29 09:31:38;;;;;;;1.27;1.27;;;24.10;66.80;;;;;;5129590;27;43895;-70
2022/07/29 09:34:07;;;;;;;1.20;1.20;;;24.10;67.70;;;;;;5129519;27;44061;-70
2022/07/29 09:36:40;;;;;;;1.47;1.47;;;24.10;67.70;;;;;;5111162;27;43638;-70
2022/07/29 09:39:09;;;;;;;1.40;1.40;;;24.20;67.30;;;;;;5129672;27;43907;-70
2022/07/29 09:41:46;;;;;;;1.50;1.50;;;24.30;66.80;;;;;;5129226;27;44028;-70
2022/07/29 09:44:14;;;;;;;1.30;1.30;;;24.40;66.50;;;;;;5129775;27;43989;-71
2022/07/29 09:46:58;;;;;;;1.33;1.23;;;24.50;66.30;;;;;;5130171;27;44046;-70
2022/07/29 09:49:26;;;;;;;1.30;1.30;;;24.50;66.30;;;;;;5129218;27;43897;-70
2022/07/29 09:52:05;;;;;;;2.07;1.47;;;24.40;65.90;;;;;;5129160;27;44010;-70
2022/07/29 09:54:37;;;;;;;1.40;1.40;;;24.40;66.00;;;;;;5129312;27;43370;-70
2022/07/29 09:57:06;;;;;;;1.53;1.50;;;24.30;65.80;;;;;;5129605;27;43947;-71
2022/07/29 09:59:34;;;;;;;1.40;1.40;;;24.30;65.80;;;;;;5129204;27;44689;-70
2022/07/29 10:02:02;;;;;;;1.30;1.30;;;24.20;65.90;;;;;;5116709;27;44017;-70
2022/07/29 10:04:40;;;;;;;1.20;1.20;;;24.20;66.00;;;;;;5090823;27;43893;-70
2022/07/29 10:07:08;;;;;;;1.40;1.40;;;24.10;66.10;;;;;;5110145;27;43844;-70
2022/07/29 10:09:37;;;;;;;1.30;1.30;;;24.10;66.10;;;;;;5109211;27;43954;-70
2022/07/29 10:12:07;;;;;;;1.40;1.40;;;24.10;66.20;;;;;;5108871;27;43839;-70
2022/07/29 10:14:35;;;;;;;1.30;1.30;;;24.10;66.20;;;;;;5109269;27;43762;-71
2022/07/29 10:17:03;;;;;;;1.27;1.27;;;24.10;66.30;;;;;;5109516;27;44082;-70
2022/07/29 10:19:31;;;;;;;2.07;1.30;;;24.00;67.50;;;;;;5090364;27;47154;-70
2022/07/29 10:22:00;;;;;;;1.20;1.20;;;24.10;67.30;;;;;;5108853;27;43334;-71
2022/07/29 10:24:29;;;;;;;1.40;1.40;;;24.30;66.60;;;;;;5115554;27;44030;-70
2022/07/29 10:26:59;;;;;;;1.87;1.30;;;24.40;65.70;;;;;;5129136;27;43959;-70
2022/07/29 10:29:27;;;;;;;1.63;1.63;;;24.70;65.20;;;;;;5102366;27;43845;-71
2022/07/29 10:32:03;;;;;;;1.27;1.27;;;24.90;64.60;;;;;;5102195;27;43977;-70
2022/07/29 10:34:36;;;;;;;1.20;1.20;;;25.10;64.10;;;;;;5108869;27;43923;-69
2022/07/29 10:37:08;;;;;;;1.63;1.60;;;25.30;63.40;;;;;;5109280;27;43872;-70
2022/07/29 10:39:43;;;;;;;1.70;1.58;;;25.50;62.90;;;;;;5108653;27;43615;-70
2022/07/29 10:42:20;;;;;;;1.67;1.67;;;25.60;62.10;;;;;;5107921;27;44092;-70
2022/07/29 10:45:01;;;;;;;1.55;1.48;;;25.60;62.00;;;;;;5128515;27;44030;-70
2022/07/29 10:47:31;;;;;;;1.50;1.50;;;25.70;61.60;;;;;;5110272;27;43960;-70
2022/07/29 10:50:02;;;;;;;1.50;1.50;;;25.80;61.60;;;;;;5116019;27;43951;-70
2022/07/29 10:52:56;;;;;;;1.70;1.58;;;25.80;61.60;;;;;;5109353;27;44857;-70
2022/07/29 10:55:36;;;;;;;1.52;1.50;;;25.60;62.00;;;;;;5128438;27;43965;-70
2022/07/29 10:58:16;;;;;;;1.50;1.50;;;25.50;62.50;;;;;;5109869;27;44005;-70
2022/07/29 11:01:03;;;;;;;1.40;1.40;;;25.30;63.10;;;;;;5105142;27;44285;-70
2022/07/29 11:03:45;;;;;;;1.60;1.50;;;25.10;63.60;;;;;;5108393;27;43426;-70
2022/07/29 11:06:19;;;;;;;1.40;1.30;;;25.00;64.10;;;;;;5108243;27;43957;-70
2022/07/29 11:09:16;;;;;;;1.20;1.20;;;24.90;64.10;;;;;;5108559;27;43942;-71
2022/07/29 11:11:47;;;;;;;1.40;1.40;;;24.70;64.90;;;;;;5089203;27;44086;-70
2022/07/29 11:14:21;;;;;;;1.60;1.60;;;24.70;65.00;;;;;;5108044;27;44066;-70
2022/07/29 11:17:03;;;;;;;1.50;1.50;;;24.70;64.80;;;;;;5108182;27;44102;-70
2022/07/29 11:19:33;;;;;;;1.30;1.30;;;24.80;64.40;;;;;;5128708;27;43379;-71
2022/07/29 11:22:03;;;;;;;1.30;1.30;;;24.90;64.30;;;;;;5100928;27;43879;-70
2022/07/29 11:24:32;;;;;;;1.40;1.40;;;24.90;64.20;;;;;;5107828;27;43998;-70
2022/07/29 11:27:12;;;;;;;1.30;1.30;;;24.80;64.40;;;;;;5101969;27;43999;-70
2022/07/29 11:29:49;;;;;;;1.17;1.17;;;24.70;64.60;;;;;;5105157;27;43795;-70
2022/07/29 11:32:19;;;;;;;1.40;1.40;;;24.70;65.10;;;;;;5127599;27;43877;-71
2022/07/29 11:35:10;;;;;;;1.20;1.20;;;24.60;65.20;;;;;;5127760;27;43927;-69
2022/07/29 11:37:45;;;;;;;1.47;1.47;;;24.50;65.00;;;;;;5086396;27;43786;-69
2022/07/29 11:40:33;;;;;;;1.57;1.57;;;24.40;65.40;;;;;;5108245;27;43997;-70
2022/07/29 11:43:02;;;;;;;1.33;1.33;;;24.40;65.80;;;;;;5107568;27;43591;-69
2022/07/29 11:45:47;;;;;;;1.40;1.40;;;24.40;65.40;;;;;;5107939;27;43914;-71
2022/07/29 11:48:19;;;;;;;1.30;1.30;;;24.50;66.00;;;;;;5107929;27;43920;-70
2022/07/29 11:51:10;;;;;;;1.37;1.37;;;24.60;65.00;;;;;;5103977;27;44040;-71
2022/07/29 11:53:40;;;;;;;1.43;1.43;;;24.60;65.10;;;;;;5107761;27;44027;-70
2022/07/29 11:56:09;;;;;;;1.40;1.40;;;24.60;65.00;;;;;;5107716;27;43373;-70
2022/07/29 11:58:43;;;;;;;1.20;1.20;;;24.50;65.40;;;;;;5107813;27;43790;-69
2022/07/29 12:01:15;;;;;;;1.43;1.43;;;24.40;65.70;;;;;;5108242;27;43957;-70
2022/07/29 12:03:44;;;;;;;1.30;1.30;;;24.40;65.60;;;;;;5088968;27;47232;-69
2022/07/29 12:06:14;;;;;;;1.57;1.57;;;24.30;65.30;;;;;;5107810;27;43843;-70
2022/07/29 12:09:02;;;;;;;1.40;1.40;;;24.30;66.00;;;;;;5107667;27;43932;-70
2022/07/29 12:11:31;;;;;;;1.33;1.33;;;24.30;66.30;;;;;;5088939;27;43933;-70
2022/07/29 12:13:59;;;;;;;1.20;1.20;;;24.30;65.90;;;;;;5107353;27;43893;-70
2022/07/29 12:16:37;;;;;;;1.50;1.50;;;24.40;65.40;;;;;;5088789;27;44592;-70
2022/07/29 12:19:05;;;;;;;1.40;1.33;;;24.50;65.10;;;;;;5089029;27;43837;-71
2022/07/29 12:21:45;;;;;;;1.27;1.27;;;24.60;65.10;;;;;;5107648;27;43943;-69
2022/07/29 12:24:23;;;;;;;1.23;1.23;;;24.60;65.10;;;;;;5113991;27;44034;-70
2022/07/29 12:26:55;;;;;;;1.60;1.60;;;24.50;65.20;;;;;;5130678;27;43983;-70
2022/07/29 12:29:23;;;;;;;1.30;1.30;;;24.40;65.60;;;;;;5130834;27;43462;-71
2022/07/29 12:32:05;;;;;;;1.40;1.40;;;24.40;65.60;;;;;;5131009;27;43960;-70
2022/07/29 12:34:41;;;;;;;1.40;1.40;;;24.30;65.20;;;;;;5130714;27;43973;-71
2022/07/29 12:37:10;;;;;;;1.30;1.30;;;24.30;65.80;;;;;;5130448;27;43950;-71
2022/07/29 12:39:38;;;;;;;1.20;1.20;;;24.30;66.10;;;;;;5130784;27;43293;-70
2022/07/29 12:42:12;;;;;;;1.30;1.30;;;24.20;65.80;;;;;;5130018;27;44072;-70
2022/07/29 12:44:46;;;;;;;1.20;1.20;;;24.20;65.60;;;;;;5130376;27;43599;-70
2022/07/29 12:47:15;;;;;;;1.40;1.40;;;24.20;66.10;;;;;;5130139;27;43899;-69
2022/07/29 12:49:44;;;;;;;1.20;1.20;;;24.10;66.40;;;;;;5130405;27;43854;-70
2022/07/29 12:52:25;;;;;;;1.47;1.47;;;24.20;66.20;;;;;;5130796;27;43901;-71
2022/07/29 12:54:53;;;;;;;1.40;1.40;;;24.30;65.80;;;;;;5130174;27;43904;-70
2022/07/29 12:57:21;;;;;;;1.40;1.40;;;24.40;65.50;;;;;;5130309;27;43959;-70
2022/07/29 13:00:00;;;;;;;1.17;1.17;;;24.50;65.20;;;;;;5130393;27;43763;-71
2022/07/29 13:02:30;;;;;;;1.23;1.23;;;24.60;65.20;;;;;;5129579;27;43930;-70
2022/07/29 13:04:58;;;;;;;1.43;1.17;;;24.60;65.20;;;;;;5110120;27;43991;-70
2022/07/29 13:07:27;;;;;;;1.30;1.30;;;24.50;65.00;;;;;;5110023;27;43985;-70
2022/07/29 13:10:15;;;;;;;1.30;1.30;;;24.40;65.60;;;;;;5110076;27;43980;-69